sensor_id;sensor_type;location;lat;lon;timestamp;temperature;humidity
63648;DHT22;49792;48.744;9.176;2023-03-01T00:01:28;16.10;55.20
63648;DHT22;49792;48.744;9.176;2023-03-01T00:03:54;16.10;55.30
63648;DHT22;49792;48.744;9.176;2023-03-01T00:06:20;16.00;55.40
63648;DHT22;49792;48.744;9.176;2023-03-01T00:08:45;16.00;55.20
63648;DHT22;49792;48.744;9.176;2023-03-01T00:13:36;15.90;55.00
63648;DHT22;49792;48.744;9.176;2023-03-01T00:16:06;16.00;55.20
63648;DHT22;49792;48.744;9.176;2023-03-01T00:18:31;16.00;55.00
63648;DHT22;49792;48.744;9.176;2023-03-01T00:20:57;16.00;55.20
63648;DHT22;49792;48.744;9.176;2023-03-01T00:23:23;16.00;55.20
63648;DHT22;49792;48.744;9.176;2023-03-01T00:25:49;15.90;55.20
63648;DHT22;49792;48.744;9.176;2023-03-01T00:28:14;15.90;55.30
63648;DHT22;49792;48.744;9.176;2023-03-01T00:30:40;15.90;55.20
63648;DHT22;49792;48.744;9.176;2023-03-01T00:33:06;15.90;55.20
63648;DHT22;49792;48.744;9.176;2023-03-01T00:35:32;16.00;55.40
63648;DHT22;49792;48.744;9.176;2023-03-01T00:37:57;15.90;55.30
63648;DHT22;49792;48.744;9.176;2023-03-01T00:40:26;15.90;55.30
63648;DHT22;49792;48.744;9.176;2023-03-01T00:42:52;15.90;55.30
63648;DHT22;49792;48.744;9.176;2023-03-01T00:45:17;15.90;55.40
63648;DHT22;49792;48.744;9.176;2023-03-01T00:47:43;15.90;55.60
63648;DHT22;49792;48.744;9.176;2023-03-01T00:50:09;15.80;55.70
63648;DHT22;49792;48.744;9.176;2023-03-01T00:52:34;15.80;55.70
63648;DHT22;49792;48.744;9.176;2023-03-01T00:55:00;15.80;55.60
63648;DHT22;49792;48.744;9.176;2023-03-01T00:57:25;15.80;55.50
63648;DHT22;49792;48.744;9.176;2023-03-01T00:59:51;15.80;55.50
63648;DHT22;49792;48.744;9.176;2023-03-01T01:02:17;15.80;55.50
63648;DHT22;49792;48.744;9.176;2023-03-01T01:04:44;15.80;55.40
63648;DHT22;49792;48.744;9.176;2023-03-01T01:07:09;15.90;55.10
63648;DHT22;49792;48.744;9.176;2023-03-01T01:09:35;15.80;55.10
63648;DHT22;49792;48.744;9.176;2023-03-01T01:12:02;15.80;55.40
63648;DHT22;49792;48.744;9.176;2023-03-01T01:14:27;15.80;55.30
63648;DHT22;49792;48.744;9.176;2023-03-01T01:16:53;15.80;55.40
63648;DHT22;49792;48.744;9.176;2023-03-01T01:19:20;15.80;55.30
63648;DHT22;49792;48.744;9.176;2023-03-01T01:21:46;15.80;55.20
63648;DHT22;49792;48.744;9.176;2023-03-01T01:24:13;15.80;55.20
63648;DHT22;49792;48.744;9.176;2023-03-01T01:26:38;15.70;55.30
63648;DHT22;49792;48.744;9.176;2023-03-01T01:29:04;15.70;55.40
63648;DHT22;49792;48.744;9.176;2023-03-01T01:31:30;15.70;55.30
63648;DHT22;49792;48.744;9.176;2023-03-01T01:33:56;15.80;55.40
63648;DHT22;49792;48.744;9.176;2023-03-01T01:36:22;15.70;55.50
63648;DHT22;49792;48.744;9.176;2023-03-01T01:38:48;15.70;55.50
63648;DHT22;49792;48.744;9.176;2023-03-01T01:41:13;15.70;56.50
63648;DHT22;49792;48.744;9.176;2023-03-01T01:43:41;15.70;55.40
63648;DHT22;49792;48.744;9.176;2023-03-01T01:46:20;15.60;55.40
63648;DHT22;49792;48.744;9.176;2023-03-01T01:48:48;15.60;55.50
63648;DHT22;49792;48.744;9.176;2023-03-01T01:51:18;15.70;55.40
63648;DHT22;49792;48.744;9.176;2023-03-01T01:53:44;15.60;55.40
63648;DHT22;49792;48.744;9.176;2023-03-01T01:56:11;15.60;55.30
63648;DHT22;49792;48.744;9.176;2023-03-01T01:58:38;15.60;55.30
63648;DHT22;49792;48.744;9.176;2023-03-01T02:01:04;15.70;55.30
63648;DHT22;49792;48.744;9.176;2023-03-01T02:03:31;15.60;55.30
63648;DHT22;49792;48.744;9.176;2023-03-01T02:08:44;15.60;55.20
63648;DHT22;49792;48.744;9.176;2023-03-01T02:11:11;15.80;55.30
63648;DHT22;49792;48.744;9.176;2023-03-01T02:13:39;15.70;55.20
63648;DHT22;49792;48.744;9.176;2023-03-01T02:16:08;15.60;55.00
63648;DHT22;49792;48.744;9.176;2023-03-01T02:18:34;15.60;55.00
63648;DHT22;49792;48.744;9.176;2023-03-01T02:23:28;15.60;54.90
63648;DHT22;49792;48.744;9.176;2023-03-01T02:26:06;15.60;55.10
63648;DHT22;49792;48.744;9.176;2023-03-01T02:28:36;15.60;55.10
63648;DHT22;49792;48.744;9.176;2023-03-01T02:31:06;15.60;55.30
63648;DHT22;49792;48.744;9.176;2023-03-01T02:33:51;15.60;55.20
63648;DHT22;49792;48.744;9.176;2023-03-01T02:36:38;15.40;55.20
63648;DHT22;49792;48.744;9.176;2023-03-01T02:39:03;15.50;55.10
63648;DHT22;49792;48.744;9.176;2023-03-01T02:41:31;15.40;55.20
63648;DHT22;49792;48.744;9.176;2023-03-01T02:43:57;15.50;55.10
63648;DHT22;49792;48.744;9.176;2023-03-01T02:46:24;15.50;55.00
63648;DHT22;49792;48.744;9.176;2023-03-01T02:48:57;15.50;55.10
63648;DHT22;49792;48.744;9.176;2023-03-01T02:51:43;15.50;54.90
63648;DHT22;49792;48.744;9.176;2023-03-01T02:56:42;15.50;54.90
63648;DHT22;49792;48.744;9.176;2023-03-01T02:59:08;15.40;54.80
63648;DHT22;49792;48.744;9.176;2023-03-01T03:01:34;15.50;54.90
63648;DHT22;49792;48.744;9.176;2023-03-01T03:04:03;15.50;54.80
63648;DHT22;49792;48.744;9.176;2023-03-01T03:06:29;15.60;54.80
63648;DHT22;49792;48.744;9.176;2023-03-01T03:08:54;15.50;54.90
63648;DHT22;49792;48.744;9.176;2023-03-01T03:11:20;15.40;54.90
63648;DHT22;49792;48.744;9.176;2023-03-01T03:13:46;15.60;55.10
63648;DHT22;49792;48.744;9.176;2023-03-01T03:16:13;15.40;55.00
63648;DHT22;49792;48.744;9.176;2023-03-01T03:18:39;15.40;55.00
63648;DHT22;49792;48.744;9.176;2023-03-01T03:21:07;15.40;55.00
63648;DHT22;49792;48.744;9.176;2023-03-01T03:23:33;15.50;54.90
63648;DHT22;49792;48.744;9.176;2023-03-01T03:25:58;15.40;55.10
63648;DHT22;49792;48.744;9.176;2023-03-01T03:28:24;15.40;55.00
63648;DHT22;49792;48.744;9.176;2023-03-01T03:30:49;15.40;55.00
63648;DHT22;49792;48.744;9.176;2023-03-01T03:33:15;15.40;55.00
63648;DHT22;49792;48.744;9.176;2023-03-01T03:35:44;15.40;54.90
63648;DHT22;49792;48.744;9.176;2023-03-01T03:38:11;15.40;54.80
63648;DHT22;49792;48.744;9.176;2023-03-01T03:40:45;15.50;54.90
63648;DHT22;49792;48.744;9.176;2023-03-01T03:43:12;15.40;54.70
63648;DHT22;49792;48.744;9.176;2023-03-01T03:45:38;15.40;54.70
63648;DHT22;49792;48.744;9.176;2023-03-01T03:48:05;15.50;54.60
63648;DHT22;49792;48.744;9.176;2023-03-01T03:50:30;15.50;54.50
63648;DHT22;49792;48.744;9.176;2023-03-01T03:52:56;15.50;54.60
63648;DHT22;49792;48.744;9.176;2023-03-01T03:55:21;15.50;54.60
63648;DHT22;49792;48.744;9.176;2023-03-01T03:57:47;15.50;54.60
63648;DHT22;49792;48.744;9.176;2023-03-01T04:00:20;15.50;54.70
63648;DHT22;49792;48.744;9.176;2023-03-01T04:02:47;15.50;54.70
63648;DHT22;49792;48.744;9.176;2023-03-01T04:05:14;15.50;54.70
63648;DHT22;49792;48.744;9.176;2023-03-01T04:07:40;15.40;54.60
63648;DHT22;49792;48.744;9.176;2023-03-01T04:10:06;15.50;54.70
63648;DHT22;49792;48.744;9.176;2023-03-01T04:12:33;15.50;54.80
63648;DHT22;49792;48.744;9.176;2023-03-01T04:14:59;15.40;54.80
63648;DHT22;49792;48.744;9.176;2023-03-01T04:17:25;15.50;55.00
63648;DHT22;49792;48.744;9.176;2023-03-01T04:19:50;15.50;54.90
63648;DHT22;49792;48.744;9.176;2023-03-01T04:22:16;15.60;55.10
63648;DHT22;49792;48.744;9.176;2023-03-01T04:24:43;15.50;55.00
63648;DHT22;49792;48.744;9.176;2023-03-01T04:27:09;15.50;55.10
63648;DHT22;49792;48.744;9.176;2023-03-01T04:29:35;15.40;55.10
63648;DHT22;49792;48.744;9.176;2023-03-01T04:32:00;15.40;55.20
63648;DHT22;49792;48.744;9.176;2023-03-01T04:34:26;15.50;55.20
63648;DHT22;49792;48.744;9.176;2023-03-01T04:36:54;15.40;55.30
63648;DHT22;49792;48.744;9.176;2023-03-01T04:39:20;15.40;55.30
63648;DHT22;49792;48.744;9.176;2023-03-01T04:41:46;15.40;55.30
63648;DHT22;49792;48.744;9.176;2023-03-01T04:44:11;15.40;55.10
63648;DHT22;49792;48.744;9.176;2023-03-01T04:46:38;15.40;55.10
63648;DHT22;49792;48.744;9.176;2023-03-01T04:49:03;15.40;55.20
63648;DHT22;49792;48.744;9.176;2023-03-01T04:51:29;15.40;55.20
63648;DHT22;49792;48.744;9.176;2023-03-01T04:53:54;15.40;55.40
63648;DHT22;49792;48.744;9.176;2023-03-01T04:56:20;15.30;55.40
63648;DHT22;49792;48.744;9.176;2023-03-01T04:58:48;15.30;55.40
63648;DHT22;49792;48.744;9.176;2023-03-01T05:01:17;15.30;55.50
63648;DHT22;49792;48.744;9.176;2023-03-01T05:03:44;15.20;55.50
63648;DHT22;49792;48.744;9.176;2023-03-01T05:06:10;15.40;55.70
63648;DHT22;49792;48.744;9.176;2023-03-01T05:08:37;15.30;55.70
63648;DHT22;49792;48.744;9.176;2023-03-01T05:11:03;15.30;55.60
63648;DHT22;49792;48.744;9.176;2023-03-01T05:13:28;15.30;55.70
63648;DHT22;49792;48.744;9.176;2023-03-01T05:18:19;15.30;55.70
63648;DHT22;49792;48.744;9.176;2023-03-01T05:20:46;15.30;55.70
63648;DHT22;49792;48.744;9.176;2023-03-01T05:23:12;15.50;55.80
63648;DHT22;49792;48.744;9.176;2023-03-01T05:25:38;15.30;55.70
63648;DHT22;49792;48.744;9.176;2023-03-01T05:28:06;15.40;55.70
63648;DHT22;49792;48.744;9.176;2023-03-01T05:30:32;15.30;55.60
63648;DHT22;49792;48.744;9.176;2023-03-01T05:32:58;15.40;55.60
63648;DHT22;49792;48.744;9.176;2023-03-01T05:35:23;15.40;55.50
63648;DHT22;49792;48.744;9.176;2023-03-01T05:37:49;15.40;55.50
63648;DHT22;49792;48.744;9.176;2023-03-01T05:40:16;15.40;56.30
63648;DHT22;49792;48.744;9.176;2023-03-01T05:42:42;15.50;56.30
63648;DHT22;49792;48.744;9.176;2023-03-01T05:45:08;15.60;56.70
63648;DHT22;49792;48.744;9.176;2023-03-01T05:47:34;15.60;56.90
63648;DHT22;49792;48.744;9.176;2023-03-01T05:50:01;15.50;56.70
63648;DHT22;49792;48.744;9.176;2023-03-01T05:52:26;15.50;57.30
63648;DHT22;49792;48.744;9.176;2023-03-01T05:54:52;15.40;57.30
63648;DHT22;49792;48.744;9.176;2023-03-01T05:57:17;15.50;57.60
63648;DHT22;49792;48.744;9.176;2023-03-01T05:59:43;15.50;57.40
63648;DHT22;49792;48.744;9.176;2023-03-01T06:02:08;15.50;57.30
63648;DHT22;49792;48.744;9.176;2023-03-01T06:04:34;15.50;57.30
63648;DHT22;49792;48.744;9.176;2023-03-01T06:06:59;15.60;57.20
63648;DHT22;49792;48.744;9.176;2023-03-01T06:09:25;15.50;57.00
63648;DHT22;49792;48.744;9.176;2023-03-01T06:11:53;15.60;56.90
63648;DHT22;49792;48.744;9.176;2023-03-01T06:14:19;15.60;56.90
63648;DHT22;49792;48.744;9.176;2023-03-01T06:16:46;15.60;56.50
63648;DHT22;49792;48.744;9.176;2023-03-01T06:19:11;15.60;57.60
63648;DHT22;49792;48.744;9.176;2023-03-01T06:21:41;15.70;56.80
63648;DHT22;49792;48.744;9.176;2023-03-01T06:24:06;15.70;56.50
63648;DHT22;49792;48.744;9.176;2023-03-01T06:26:32;15.70;56.10
63648;DHT22;49792;48.744;9.176;2023-03-01T06:28:58;15.70;55.90
63648;DHT22;49792;48.744;9.176;2023-03-01T06:31:23;15.60;56.40
63648;DHT22;49792;48.744;9.176;2023-03-01T06:33:55;15.60;56.40
63648;DHT22;49792;48.744;9.176;2023-03-01T06:36:21;15.60;56.40
63648;DHT22;49792;48.744;9.176;2023-03-01T06:38:47;15.60;56.40
63648;DHT22;49792;48.744;9.176;2023-03-01T06:41:12;15.70;56.50
63648;DHT22;49792;48.744;9.176;2023-03-01T06:43:38;15.70;56.40
63648;DHT22;49792;48.744;9.176;2023-03-01T06:46:04;15.70;56.60
63648;DHT22;49792;48.744;9.176;2023-03-01T06:48:30;15.70;56.20
63648;DHT22;49792;48.744;9.176;2023-03-01T06:50:57;15.80;56.30
63648;DHT22;49792;48.744;9.176;2023-03-01T06:53:23;15.70;56.50
63648;DHT22;49792;48.744;9.176;2023-03-01T06:55:53;15.70;56.50
63648;DHT22;49792;48.744;9.176;2023-03-01T06:58:18;15.70;56.40
63648;DHT22;49792;48.744;9.176;2023-03-01T07:00:44;15.70;56.60
63648;DHT22;49792;48.744;9.176;2023-03-01T07:03:09;15.70;56.60
63648;DHT22;49792;48.744;9.176;2023-03-01T07:05:35;15.70;56.60
63648;DHT22;49792;48.744;9.176;2023-03-01T07:08:00;15.80;56.50
63648;DHT22;49792;48.744;9.176;2023-03-01T07:10:26;15.90;56.00
63648;DHT22;49792;48.744;9.176;2023-03-01T07:12:55;15.90;55.50
63648;DHT22;49792;48.744;9.176;2023-03-01T07:15:21;15.90;55.40
63648;DHT22;49792;48.744;9.176;2023-03-01T07:17:46;15.80;55.10
63648;DHT22;49792;48.744;9.176;2023-03-01T07:20:15;15.50;55.80
63648;DHT22;49792;48.744;9.176;2023-03-01T07:22:41;15.60;55.30
63648;DHT22;49792;48.744;9.176;2023-03-01T07:25:07;15.90;55.10
63648;DHT22;49792;48.744;9.176;2023-03-01T07:27:36;15.90;54.70
63648;DHT22;49792;48.744;9.176;2023-03-01T07:30:02;16.10;54.50
63648;DHT22;49792;48.744;9.176;2023-03-01T07:32:27;16.00;54.40
63648;DHT22;49792;48.744;9.176;2023-03-01T07:34:53;16.10;54.50
63648;DHT22;49792;48.744;9.176;2023-03-01T07:37:18;16.10;54.20
63648;DHT22;49792;48.744;9.176;2023-03-01T07:39:44;16.10;54.10
63648;DHT22;49792;48.744;9.176;2023-03-01T07:42:09;16.10;54.00
63648;DHT22;49792;48.744;9.176;2023-03-01T07:44:35;16.10;53.90
63648;DHT22;49792;48.744;9.176;2023-03-01T07:47:00;16.10;53.80
63648;DHT22;49792;48.744;9.176;2023-03-01T07:49:26;16.30;53.80
63648;DHT22;49792;48.744;9.176;2023-03-01T07:51:52;16.20;53.60
63648;DHT22;49792;48.744;9.176;2023-03-01T07:54:17;16.30;53.60
63648;DHT22;49792;48.744;9.176;2023-03-01T07:56:43;16.20;53.50
63648;DHT22;49792;48.744;9.176;2023-03-01T07:59:09;16.20;53.30
63648;DHT22;49792;48.744;9.176;2023-03-01T08:01:34;16.20;53.30
63648;DHT22;49792;48.744;9.176;2023-03-01T08:04:00;16.30;53.20
63648;DHT22;49792;48.744;9.176;2023-03-01T08:06:26;16.20;53.10
63648;DHT22;49792;48.744;9.176;2023-03-01T08:08:52;16.40;53.30
63648;DHT22;49792;48.744;9.176;2023-03-01T08:11:20;16.30;53.10
63648;DHT22;49792;48.744;9.176;2023-03-01T08:13:47;16.40;53.20
63648;DHT22;49792;48.744;9.176;2023-03-01T08:16:13;16.40;53.30
63648;DHT22;49792;48.744;9.176;2023-03-01T08:18:39;16.50;53.20
63648;DHT22;49792;48.744;9.176;2023-03-01T08:21:06;16.70;54.00
63648;DHT22;49792;48.744;9.176;2023-03-01T08:23:32;16.50;54.20
63648;DHT22;49792;48.744;9.176;2023-03-01T08:26:08;16.40;54.60
63648;DHT22;49792;48.744;9.176;2023-03-01T08:28:33;16.30;54.50
63648;DHT22;49792;48.744;9.176;2023-03-01T08:30:59;16.30;54.30
63648;DHT22;49792;48.744;9.176;2023-03-01T08:33:24;16.30;54.90
63648;DHT22;49792;48.744;9.176;2023-03-01T08:35:50;16.20;55.20
63648;DHT22;49792;48.744;9.176;2023-03-01T08:38:15;16.10;55.20
63648;DHT22;49792;48.744;9.176;2023-03-01T08:40:41;16.10;56.10
63648;DHT22;49792;48.744;9.176;2023-03-01T08:43:06;16.10;55.30
63648;DHT22;49792;48.744;9.176;2023-03-01T08:45:32;16.00;55.30
63648;DHT22;49792;48.744;9.176;2023-03-01T08:47:57;16.20;54.90
63648;DHT22;49792;48.744;9.176;2023-03-01T08:50:23;16.10;54.80
63648;DHT22;49792;48.744;9.176;2023-03-01T08:52:49;16.00;54.70
63648;DHT22;49792;48.744;9.176;2023-03-01T08:55:15;16.10;54.70
63648;DHT22;49792;48.744;9.176;2023-03-01T08:57:43;16.20;54.30
63648;DHT22;49792;48.744;9.176;2023-03-01T09:00:09;16.30;53.60
63648;DHT22;49792;48.744;9.176;2023-03-01T09:02:36;16.40;53.30
63648;DHT22;49792;48.744;9.176;2023-03-01T09:05:02;16.40;53.20
63648;DHT22;49792;48.744;9.176;2023-03-01T09:07:27;16.40;52.90
63648;DHT22;49792;48.744;9.176;2023-03-01T09:09:56;16.50;52.80
63648;DHT22;49792;48.744;9.176;2023-03-01T09:12:21;16.50;52.70
63648;DHT22;49792;48.744;9.176;2023-03-01T09:14:47;16.50;52.50
63648;DHT22;49792;48.744;9.176;2023-03-01T09:17:13;16.50;52.40
63648;DHT22;49792;48.744;9.176;2023-03-01T09:19:38;16.60;52.40
63648;DHT22;49792;48.744;9.176;2023-03-01T09:22:04;16.60;52.30
63648;DHT22;49792;48.744;9.176;2023-03-01T09:24:32;16.60;52.20
63648;DHT22;49792;48.744;9.176;2023-03-01T09:26:58;16.60;52.10
63648;DHT22;49792;48.744;9.176;2023-03-01T09:29:23;16.60;53.50
63648;DHT22;49792;48.744;9.176;2023-03-01T09:31:49;16.60;54.10
63648;DHT22;49792;48.744;9.176;2023-03-01T09:34:14;16.60;53.90
63648;DHT22;49792;48.744;9.176;2023-03-01T09:36:48;16.70;54.50
63648;DHT22;49792;48.744;9.176;2023-03-01T09:39:14;16.60;54.20
63648;DHT22;49792;48.744;9.176;2023-03-01T09:46:45;16.60;53.50
63648;DHT22;49792;48.744;9.176;2023-03-01T09:49:12;16.60;53.60
63648;DHT22;49792;48.744;9.176;2023-03-01T09:51:39;16.50;53.60
63648;DHT22;49792;48.744;9.176;2023-03-01T09:54:05;16.60;53.70
63648;DHT22;49792;48.744;9.176;2023-03-01T09:56:34;16.50;53.50
63648;DHT22;49792;48.744;9.176;2023-03-01T10:01:50;16.60;53.40
63648;DHT22;49792;48.744;9.176;2023-03-01T10:07:05;16.50;53.40
63648;DHT22;49792;48.744;9.176;2023-03-01T10:09:36;16.50;53.20
63648;DHT22;49792;48.744;9.176;2023-03-01T10:12:02;16.50;53.20
63648;DHT22;49792;48.744;9.176;2023-03-01T10:16:58;16.50;53.20
63648;DHT22;49792;48.744;9.176;2023-03-01T10:21:57;16.60;52.90
63648;DHT22;49792;48.744;9.176;2023-03-01T10:24:25;16.60;53.00
63648;DHT22;49792;48.744;9.176;2023-03-01T10:26:55;16.60;52.90
63648;DHT22;49792;48.744;9.176;2023-03-01T10:32:11;16.60;52.70
63648;DHT22;49792;48.744;9.176;2023-03-01T10:34:37;16.60;52.50
63648;DHT22;49792;48.744;9.176;2023-03-01T10:37:10;16.60;52.50
63648;DHT22;49792;48.744;9.176;2023-03-01T10:39:36;16.60;52.50
63648;DHT22;49792;48.744;9.176;2023-03-01T10:44:41;16.60;52.40
63648;DHT22;49792;48.744;9.176;2023-03-01T10:47:18;16.60;52.50
63648;DHT22;49792;48.744;9.176;2023-03-01T10:52:24;16.60;52.30
63648;DHT22;49792;48.744;9.176;2023-03-01T10:54:58;16.70;52.40
63648;DHT22;49792;48.744;9.176;2023-03-01T10:57:29;16.70;52.20
63648;DHT22;49792;48.744;9.176;2023-03-01T11:00:09;16.70;52.30
63648;DHT22;49792;48.744;9.176;2023-03-01T11:02:40;16.70;52.30
63648;DHT22;49792;48.744;9.176;2023-03-01T11:07:54;16.70;52.20
63648;DHT22;49792;48.744;9.176;2023-03-01T11:10:21;16.70;52.40
63648;DHT22;49792;48.744;9.176;2023-03-01T11:12:47;16.70;52.40
63648;DHT22;49792;48.744;9.176;2023-03-01T11:15:26;16.80;52.60
63648;DHT22;49792;48.744;9.176;2023-03-01T11:17:51;16.80;52.70
63648;DHT22;49792;48.744;9.176;2023-03-01T11:20:35;16.80;52.70
63648;DHT22;49792;48.744;9.176;2023-03-01T11:23:02;16.80;52.70
63648;DHT22;49792;48.744;9.176;2023-03-01T11:25:30;16.80;52.90
63648;DHT22;49792;48.744;9.176;2023-03-01T11:27:57;16.70;52.90
63648;DHT22;49792;48.744;9.176;2023-03-01T11:30:24;16.80;53.00
63648;DHT22;49792;48.744;9.176;2023-03-01T11:35:37;16.80;52.60
63648;DHT22;49792;48.744;9.176;2023-03-01T11:38:25;16.80;52.30
63648;DHT22;49792;48.744;9.176;2023-03-01T11:40:57;16.80;52.30
63648;DHT22;49792;48.744;9.176;2023-03-01T11:43:36;16.80;52.30
63648;DHT22;49792;48.744;9.176;2023-03-01T11:46:39;16.80;52.40
63648;DHT22;49792;48.744;9.176;2023-03-01T11:51:25;16.90;52.00
63648;DHT22;49792;48.744;9.176;2023-03-01T11:54:03;16.70;52.00
63648;DHT22;49792;48.744;9.176;2023-03-01T11:56:32;16.80;52.20
63648;DHT22;49792;48.744;9.176;2023-03-01T12:18:33;16.80;52.50
63648;DHT22;49792;48.744;9.176;2023-03-01T12:30:35;16.80;51.90
63648;DHT22;49792;48.744;9.176;2023-03-01T12:33:13;16.90;52.20
63648;DHT22;49792;48.744;9.176;2023-03-01T12:38:32;16.90;52.00
63648;DHT22;49792;48.744;9.176;2023-03-01T12:46:18;16.80;52.10
63648;DHT22;49792;48.744;9.176;2023-03-01T12:51:19;16.80;52.20
63648;DHT22;49792;48.744;9.176;2023-03-01T12:53:50;16.80;52.00
63648;DHT22;49792;48.744;9.176;2023-03-01T12:56:17;16.80;52.10
63648;DHT22;49792;48.744;9.176;2023-03-01T13:06:25;16.90;51.50
63648;DHT22;49792;48.744;9.176;2023-03-01T13:09:00;16.90;51.60
63648;DHT22;49792;48.744;9.176;2023-03-01T13:11:29;16.90;51.50
63648;DHT22;49792;48.744;9.176;2023-03-01T13:16:39;16.90;51.30
63648;DHT22;49792;48.744;9.176;2023-03-01T13:19:06;16.90;51.40
63648;DHT22;49792;48.744;9.176;2023-03-01T13:21:33;16.90;51.30
63648;DHT22;49792;48.744;9.176;2023-03-01T13:23:58;16.90;51.30
63648;DHT22;49792;48.744;9.176;2023-03-01T13:26:24;17.00;51.30
63648;DHT22;49792;48.744;9.176;2023-03-01T13:28:50;17.00;51.30
63648;DHT22;49792;48.744;9.176;2023-03-01T13:36:07;17.10;51.90
63648;DHT22;49792;48.744;9.176;2023-03-01T13:38:47;17.20;51.90
63648;DHT22;49792;48.744;9.176;2023-03-01T13:41:14;17.10;52.40
63648;DHT22;49792;48.744;9.176;2023-03-01T13:43:40;17.30;52.50
63648;DHT22;49792;48.744;9.176;2023-03-01T13:46:08;17.10;52.30
63648;DHT22;49792;48.744;9.176;2023-03-01T13:48:36;17.10;52.60
63648;DHT22;49792;48.744;9.176;2023-03-01T13:51:03;17.10;53.00
63648;DHT22;49792;48.744;9.176;2023-03-01T13:53:30;17.10;53.00
63648;DHT22;49792;48.744;9.176;2023-03-01T13:56:07;17.20;53.90
63648;DHT22;49792;48.744;9.176;2023-03-01T13:58:33;17.20;53.50
63648;DHT22;49792;48.744;9.176;2023-03-01T14:01:18;17.20;53.80
63648;DHT22;49792;48.744;9.176;2023-03-01T14:03:45;17.20;53.80
63648;DHT22;49792;48.744;9.176;2023-03-01T14:06:12;17.20;53.80
63648;DHT22;49792;48.744;9.176;2023-03-01T14:08:38;17.20;53.50
63648;DHT22;49792;48.744;9.176;2023-03-01T14:18:54;17.30;53.30
63648;DHT22;49792;48.744;9.176;2023-03-01T14:21:21;17.30;53.20
63648;DHT22;49792;48.744;9.176;2023-03-01T14:23:47;17.30;52.90
63648;DHT22;49792;48.744;9.176;2023-03-01T14:26:13;17.30;52.30
63648;DHT22;49792;48.744;9.176;2023-03-01T14:28:47;17.40;52.30
63648;DHT22;49792;48.744;9.176;2023-03-01T14:33:58;17.40;52.30
63648;DHT22;49792;48.744;9.176;2023-03-01T14:36:28;17.40;52.30
63648;DHT22;49792;48.744;9.176;2023-03-01T14:38:54;17.40;52.20
63648;DHT22;49792;48.744;9.176;2023-03-01T14:41:22;17.40;52.20
63648;DHT22;49792;48.744;9.176;2023-03-01T14:43:52;17.50;52.20
63648;DHT22;49792;48.744;9.176;2023-03-01T14:46:25;17.40;51.90
63648;DHT22;49792;48.744;9.176;2023-03-01T14:48:52;17.40;52.00
63648;DHT22;49792;48.744;9.176;2023-03-01T14:51:18;17.40;52.10
63648;DHT22;49792;48.744;9.176;2023-03-01T14:53:44;17.40;52.10
63648;DHT22;49792;48.744;9.176;2023-03-01T14:56:13;17.40;51.90
63648;DHT22;49792;48.744;9.176;2023-03-01T14:58:39;17.40;52.10
63648;DHT22;49792;48.744;9.176;2023-03-01T15:01:05;17.50;52.00
63648;DHT22;49792;48.744;9.176;2023-03-01T15:03:35;17.40;52.10
63648;DHT22;49792;48.744;9.176;2023-03-01T15:06:02;17.40;52.20
63648;DHT22;49792;48.744;9.176;2023-03-01T15:08:28;17.40;52.20
63648;DHT22;49792;48.744;9.176;2023-03-01T15:11:20;17.40;52.20
63648;DHT22;49792;48.744;9.176;2023-03-01T15:13:43;17.40;52.10
63648;DHT22;49792;48.744;9.176;2023-03-01T15:18:37;17.40;52.10
63648;DHT22;49792;48.744;9.176;2023-03-01T15:21:19;17.40;52.00
63648;DHT22;49792;48.744;9.176;2023-03-01T15:23:49;17.40;52.00
63648;DHT22;49792;48.744;9.176;2023-03-01T15:26:22;17.40;51.90
63648;DHT22;49792;48.744;9.176;2023-03-01T15:28:52;17.50;51.90
63648;DHT22;49792;48.744;9.176;2023-03-01T15:31:22;17.50;51.90
63648;DHT22;49792;48.744;9.176;2023-03-01T15:33:48;17.50;51.80
63648;DHT22;49792;48.744;9.176;2023-03-01T15:38:57;17.40;51.90
63648;DHT22;49792;48.744;9.176;2023-03-01T15:41:32;17.40;51.90
63648;DHT22;49792;48.744;9.176;2023-03-01T15:43:58;17.40;52.00
63648;DHT22;49792;48.744;9.176;2023-03-01T15:46:28;17.30;52.10
63648;DHT22;49792;48.744;9.176;2023-03-01T15:48:56;17.30;52.10
63648;DHT22;49792;48.744;9.176;2023-03-01T15:51:32;17.20;52.00
63648;DHT22;49792;48.744;9.176;2023-03-01T15:53:59;17.20;52.10
63648;DHT22;49792;48.744;9.176;2023-03-01T15:56:26;17.20;52.10
63648;DHT22;49792;48.744;9.176;2023-03-01T15:58:51;17.20;51.90
63648;DHT22;49792;48.744;9.176;2023-03-01T16:01:20;17.20;52.10
63648;DHT22;49792;48.744;9.176;2023-03-01T16:03:46;17.20;52.20
63648;DHT22;49792;48.744;9.176;2023-03-01T16:06:12;17.20;52.30
63648;DHT22;49792;48.744;9.176;2023-03-01T16:08:37;17.20;52.20
63648;DHT22;49792;48.744;9.176;2023-03-01T16:11:16;17.20;52.20
63648;DHT22;49792;48.744;9.176;2023-03-01T16:13:43;17.20;52.20
63648;DHT22;49792;48.744;9.176;2023-03-01T16:16:12;17.10;52.30
63648;DHT22;49792;48.744;9.176;2023-03-01T16:18:40;17.20;52.30
63648;DHT22;49792;48.744;9.176;2023-03-01T16:21:06;17.20;52.40
63648;DHT22;49792;48.744;9.176;2023-03-01T16:23:37;17.00;52.10
63648;DHT22;49792;48.744;9.176;2023-03-01T16:26:02;17.10;52.20
63648;DHT22;49792;48.744;9.176;2023-03-01T16:28:28;17.10;52.20
63648;DHT22;49792;48.744;9.176;2023-03-01T16:30:59;17.10;52.30
63648;DHT22;49792;48.744;9.176;2023-03-01T16:33:26;17.10;52.30
63648;DHT22;49792;48.744;9.176;2023-03-01T16:35:52;17.00;52.20
63648;DHT22;49792;48.744;9.176;2023-03-01T16:38:17;17.00;52.20
63648;DHT22;49792;48.744;9.176;2023-03-01T16:40:46;17.00;52.20
63648;DHT22;49792;48.744;9.176;2023-03-01T16:43:14;17.00;52.20
63648;DHT22;49792;48.744;9.176;2023-03-01T16:45:40;17.00;52.10
63648;DHT22;49792;48.744;9.176;2023-03-01T16:48:06;17.00;52.00
63648;DHT22;49792;48.744;9.176;2023-03-01T16:50:31;16.90;52.10
63648;DHT22;49792;48.744;9.176;2023-03-01T16:52:57;16.90;52.00
63648;DHT22;49792;48.744;9.176;2023-03-01T16:55:22;17.00;52.10
63648;DHT22;49792;48.744;9.176;2023-03-01T16:57:48;17.00;52.10
63648;DHT22;49792;48.744;9.176;2023-03-01T17:00:14;17.00;52.00
63648;DHT22;49792;48.744;9.176;2023-03-01T17:02:40;16.90;51.90
63648;DHT22;49792;48.744;9.176;2023-03-01T17:05:06;16.90;51.90
63648;DHT22;49792;48.744;9.176;2023-03-01T17:07:32;16.70;51.90
63648;DHT22;49792;48.744;9.176;2023-03-01T17:10:01;16.50;52.40
63648;DHT22;49792;48.744;9.176;2023-03-01T17:12:27;16.60;51.40
63648;DHT22;49792;48.744;9.176;2023-03-01T17:14:59;16.70;51.10
63648;DHT22;49792;48.744;9.176;2023-03-01T17:17:28;16.60;50.90
63648;DHT22;49792;48.744;9.176;2023-03-01T17:19:54;16.80;50.70
63648;DHT22;49792;48.744;9.176;2023-03-01T17:22:20;16.80;50.50
63648;DHT22;49792;48.744;9.176;2023-03-01T17:24:47;16.90;50.30
63648;DHT22;49792;48.744;9.176;2023-03-01T17:27:36;16.90;50.10